sensor_id;sensor_type;location;lat;lon;timestamp;temperature;humidity
6930;DHT22;3504;52.616;13.238;2023-09-12T00:01:04;18.20;75.99
6930;DHT22;3504;52.616;13.238;2023-09-12T00:06:05;18.14;76.16
6930;DHT22;3504;52.616;13.238;2023-09-12T00:11:09;18.13;76.18
6930;DHT22;3504;52.616;13.238;2023-09-12T00:16:12;18.12;76.31
6930;DHT22;3504;52.616;13.238;2023-09-12T00:21:13;18.06;76.28
6930;DHT22;3504;52.616;13.238;2023-09-12T00:26:13;17.99;76.30
6930;DHT22;3504;52.616;13.238;2023-09-12T00:31:15;17.96;76.79
6930;DHT22;3504;52.616;13.238;2023-09-12T00:36:17;17.90;77.00
6930;DHT22;3504;52.616;13.238;2023-09-12T00:41:17;17.85;77.10
6930;DHT22;3504;52.616;13.238;2023-09-12T00:46:19;17.78;77.23
6930;DHT22;3504;52.616;13.238;2023-09-12T00:51:21;17.71;77.29
6930;DHT22;3504;52.616;13.238;2023-09-12T00:56:23;17.64;77.55
6930;DHT22;3504;52.616;13.238;2023-09-12T01:01:23;17.61;77.51
6930;DHT22;3504;52.616;13.238;2023-09-12T01:06:24;17.59;77.24
6930;DHT22;3504;52.616;13.238;2023-09-12T01:11:27;17.59;77.49
6930;DHT22;3504;52.616;13.238;2023-09-12T01:16:28;17.54;77.68
6930;DHT22;3504;52.616;13.238;2023-09-12T01:21:47;17.49;77.43
6930;DHT22;3504;52.616;13.238;2023-09-12T01:27:21;17.46;77.84
6930;DHT22;3504;52.616;13.238;2023-09-12T01:32:22;17.44;77.40
6930;DHT22;3504;52.616;13.238;2023-09-12T01:37:22;17.42;77.83
6930;DHT22;3504;52.616;13.238;2023-09-12T01:42:24;17.38;77.88
6930;DHT22;3504;52.616;13.238;2023-09-12T01:47:28;17.34;78.01
6930;DHT22;3504;52.616;13.238;2023-09-12T01:52:29;17.28;78.11
6930;DHT22;3504;52.616;13.238;2023-09-12T01:57:30;17.21;78.52
6930;DHT22;3504;52.616;13.238;2023-09-12T02:02:31;17.21;78.30
6930;DHT22;3504;52.616;13.238;2023-09-12T02:07:35;17.21;78.45
6930;DHT22;3504;52.616;13.238;2023-09-12T02:12:37;17.14;78.61
6930;DHT22;3504;52.616;13.238;2023-09-12T02:17:38;17.13;78.79
6930;DHT22;3504;52.616;13.238;2023-09-12T02:22:39;17.10;78.35
6930;DHT22;3504;52.616;13.238;2023-09-12T02:27:40;17.06;78.63
6930;DHT22;3504;52.616;13.238;2023-09-12T02:32:42;17.04;78.75
6930;DHT22;3504;52.616;13.238;2023-09-12T02:37:43;17.03;78.34
6930;DHT22;3504;52.616;13.238;2023-09-12T02:42:43;17.01;78.18
6930;DHT22;3504;52.616;13.238;2023-09-12T02:47:44;16.97;78.62
6930;DHT22;3504;52.616;13.238;2023-09-12T02:52:46;16.93;78.22
6930;DHT22;3504;52.616;13.238;2023-09-12T02:57:47;16.87;78.78
6930;DHT22;3504;52.616;13.238;2023-09-12T03:02:47;16.87;78.67
6930;DHT22;3504;52.616;13.238;2023-09-12T03:07:48;16.82;78.33
6930;DHT22;3504;52.616;13.238;2023-09-12T03:12:49;16.80;78.99
6930;DHT22;3504;52.616;13.238;2023-09-12T03:17:50;16.76;79.18
6930;DHT22;3504;52.616;13.238;2023-09-12T03:22:51;16.67;78.98
6930;DHT22;3504;52.616;13.238;2023-09-12T03:27:51;16.66;78.60
6930;DHT22;3504;52.616;13.238;2023-09-12T03:32:52;16.66;79.36
6930;DHT22;3504;52.616;13.238;2023-09-12T03:37:53;16.60;79.37
6930;DHT22;3504;52.616;13.238;2023-09-12T03:42:53;16.53;79.26
6930;DHT22;3504;52.616;13.238;2023-09-12T03:47:55;16.53;78.55
6930;DHT22;3504;52.616;13.238;2023-09-12T03:52:56;16.52;78.87
6930;DHT22;3504;52.616;13.238;2023-09-12T03:57:56;16.51;79.19
6930;DHT22;3504;52.616;13.238;2023-09-12T04:02:57;16.48;79.53
6930;DHT22;3504;52.616;13.238;2023-09-12T04:07:58;16.42;79.55
6930;DHT22;3504;52.616;13.238;2023-09-12T04:12:59;16.38;79.65
6930;DHT22;3504;52.616;13.238;2023-09-12T04:17:59;16.32;79.67
6930;DHT22;3504;52.616;13.238;2023-09-12T04:23:03;16.32;79.24
6930;DHT22;3504;52.616;13.238;2023-09-12T04:28:04;16.32;79.78
6930;DHT22;3504;52.616;13.238;2023-09-12T04:33:05;16.29;79.42
6930;DHT22;3504;52.616;13.238;2023-09-12T04:38:05;16.31;79.03
6930;DHT22;3504;52.616;13.238;2023-09-12T04:43:06;16.33;78.89
6930;DHT22;3504;52.616;13.238;2023-09-12T04:48:07;16.36;79.51
6930;DHT22;3504;52.616;13.238;2023-09-12T04:53:07;16.36;79.50
6930;DHT22;3504;52.616;13.238;2023-09-12T04:58:08;16.39;79.36
6930;DHT22;3504;52.616;13.238;2023-09-12T05:03:08;16.39;79.90
6930;DHT22;3504;52.616;13.238;2023-09-12T05:08:09;16.41;80.16
6930;DHT22;3504;52.616;13.238;2023-09-12T05:13:09;16.42;80.62
6930;DHT22;3504;52.616;13.238;2023-09-12T05:18:10;16.49;80.03
6930;DHT22;3504;52.616;13.238;2023-09-12T05:23:11;16.55;80.43
6930;DHT22;3504;52.616;13.238;2023-09-12T05:28:12;16.62;80.07
6930;DHT22;3504;52.616;13.238;2023-09-12T05:33:16;16.73;79.47
6930;DHT22;3504;52.616;13.238;2023-09-12T05:38:20;16.86;79.60
6930;DHT22;3504;52.616;13.238;2023-09-12T05:43:20;16.97;79.28
6930;DHT22;3504;52.616;13.238;2023-09-12T05:48:21;17.06;80.38
6930;DHT22;3504;52.616;13.238;2023-09-12T05:53:22;17.06;81.26
6930;DHT22;3504;52.616;13.238;2023-09-12T05:58:22;17.17;80.74
6930;DHT22;3504;52.616;13.238;2023-09-12T06:03:23;17.31;80.19
6930;DHT22;3504;52.616;13.238;2023-09-12T06:08:23;17.44;80.11
6930;DHT22;3504;52.616;13.238;2023-09-12T06:13:24;17.61;80.89
6930;DHT22;3504;52.616;13.238;2023-09-12T06:18:25;17.75;80.59
6930;DHT22;3504;52.616;13.238;2023-09-12T06:23:28;17.89;80.34
6930;DHT22;3504;52.616;13.238;2023-09-12T06:28:31;18.05;80.61
6930;DHT22;3504;52.616;13.238;2023-09-12T06:33:31;18.26;80.08
6930;DHT22;3504;52.616;13.238;2023-09-12T06:38:33;18.48;79.44
6930;DHT22;3504;52.616;13.238;2023-09-12T06:43:33;18.69;81.41
6930;DHT22;3504;52.616;13.238;2023-09-12T06:48:34;18.87;78.64
6930;DHT22;3504;52.616;13.238;2023-09-12T06:53:35;18.99;77.95
6930;DHT22;3504;52.616;13.238;2023-09-12T06:58:37;19.20;76.94
6930;DHT22;3504;52.616;13.238;2023-09-12T07:03:37;19.32;75.28
6930;DHT22;3504;52.616;13.238;2023-09-12T07:08:38;19.49;74.87
6930;DHT22;3504;52.616;13.238;2023-09-12T07:13:38;19.69;74.78
6930;DHT22;3504;52.616;13.238;2023-09-12T07:18:39;19.96;74.96
6930;DHT22;3504;52.616;13.238;2023-09-12T07:23:39;20.24;74.46
6930;DHT22;3504;52.616;13.238;2023-09-12T07:28:40;20.49;73.22
6930;DHT22;3504;52.616;13.238;2023-09-12T07:33:41;20.79;71.29
6930;DHT22;3504;52.616;13.238;2023-09-12T07:38:41;21.02;70.37
6930;DHT22;3504;52.616;13.238;2023-09-12T07:43:42;21.21;70.17
6930;DHT22;3504;52.616;13.238;2023-09-12T07:48:43;21.40;69.43
6930;DHT22;3504;52.616;13.238;2023-09-12T07:53:43;21.68;70.19
6930;DHT22;3504;52.616;13.238;2023-09-12T07:58:44;21.98;69.42
6930;DHT22;3504;52.616;13.238;2023-09-12T08:03:44;22.20;68.92
6930;DHT22;3504;52.616;13.238;2023-09-12T08:08:45;22.32;67.72
6930;DHT22;3504;52.616;13.238;2023-09-12T08:13:49;22.55;67.64
6930;DHT22;3504;52.616;13.238;2023-09-12T08:18:50;22.76;67.25
6930;DHT22;3504;52.616;13.238;2023-09-12T08:23:50;22.95;66.39
6930;DHT22;3504;52.616;13.238;2023-09-12T08:28:51;23.18;65.69
6930;DHT22;3504;52.616;13.238;2023-09-12T08:33:51;23.38;64.17
6930;DHT22;3504;52.616;13.238;2023-09-12T08:38:52;23.67;65.17
6930;DHT22;3504;52.616;13.238;2023-09-12T08:43:54;24.01;65.12
6930;DHT22;3504;52.616;13.238;2023-09-12T08:48:55;24.36;63.81
6930;DHT22;3504;52.616;13.238;2023-09-12T08:53:56;24.65;63.35
6930;DHT22;3504;52.616;13.238;2023-09-12T08:58:57;24.92;63.28
6930;DHT22;3504;52.616;13.238;2023-09-12T09:03:58;25.27;62.23
6930;DHT22;3504;52.616;13.238;2023-09-12T09:09:00;25.69;60.53
6930;DHT22;3504;52.616;13.238;2023-09-12T09:14:02;26.02;60.67
6930;DHT22;3504;52.616;13.238;2023-09-12T09:19:05;26.26;58.76
6930;DHT22;3504;52.616;13.238;2023-09-12T09:24:13;26.42;58.03
6930;DHT22;3504;52.616;13.238;2023-09-12T09:29:17;26.69;57.42
6930;DHT22;3504;52.616;13.238;2023-09-12T09:34:20;26.90;57.63
6930;DHT22;3504;52.616;13.238;2023-09-12T09:39:26;27.24;57.18
6930;DHT22;3504;52.616;13.238;2023-09-12T09:44:27;27.64;54.94
6930;DHT22;3504;52.616;13.238;2023-09-12T09:49:31;27.71;55.73
6930;DHT22;3504;52.616;13.238;2023-09-12T09:54:32;27.71;55.07
6930;DHT22;3504;52.616;13.238;2023-09-12T09:59:32;27.82;54.78
6930;DHT22;3504;52.616;13.238;2023-09-12T10:04:34;28.01;53.06
6930;DHT22;3504;52.616;13.238;2023-09-12T10:09:35;28.15;53.39
6930;DHT22;3504;52.616;13.238;2023-09-12T10:14:39;28.32;53.38
6930;DHT22;3504;52.616;13.238;2023-09-12T10:19:54;28.61;53.70
6930;DHT22;3504;52.616;13.238;2023-09-12T10:24:56;28.98;53.13
6930;DHT22;3504;52.616;13.238;2023-09-12T10:29:58;29.07;51.23
6930;DHT22;3504;52.616;13.238;2023-09-12T10:35:02;29.39;50.92
6930;DHT22;3504;52.616;13.238;2023-09-12T10:40:05;29.58;50.12
6930;DHT22;3504;52.616;13.238;2023-09-12T10:45:09;29.60;47.84
6930;DHT22;3504;52.616;13.238;2023-09-12T10:50:10;29.49;48.62
6930;DHT22;3504;52.616;13.238;2023-09-12T10:55:16;29.69;48.26
6930;DHT22;3504;52.616;13.238;2023-09-12T11:00:19;29.77;50.80
6930;DHT22;3504;52.616;13.238;2023-09-12T11:10:29;29.46;49.06
6930;DHT22;3504;52.616;13.238;2023-09-12T11:15:32;29.53;49.79
6930;DHT22;3504;52.616;13.238;2023-09-12T11:21:00;29.48;49.81
6930;DHT22;3504;52.616;13.238;2023-09-12T11:26:07;29.48;48.57
6930;DHT22;3504;52.616;13.238;2023-09-12T11:31:08;29.56;48.95
6930;DHT22;3504;52.616;13.238;2023-09-12T11:36:13;29.53;48.93
6930;DHT22;3504;52.616;13.238;2023-09-12T11:41:14;29.25;50.67
6930;DHT22;3504;52.616;13.238;2023-09-12T11:46:15;29.48;49.35
6930;DHT22;3504;52.616;13.238;2023-09-12T11:51:15;29.56;49.27
6930;DHT22;3504;52.616;13.238;2023-09-12T11:56:16;29.58;48.30
6930;DHT22;3504;52.616;13.238;2023-09-12T12:01:16;29.66;47.69
6930;DHT22;3504;52.616;13.238;2023-09-12T12:06:17;29.65;47.42
6930;DHT22;3504;52.616;13.238;2023-09-12T12:11:18;29.65;48.89
6930;DHT22;3504;52.616;13.238;2023-09-12T12:16:19;29.70;48.61
6930;DHT22;3504;52.616;13.238;2023-09-12T12:21:20;29.59;47.93
6930;DHT22;3504;52.616;13.238;2023-09-12T12:26:20;29.63;48.84
6930;DHT22;3504;52.616;13.238;2023-09-12T12:31:21;29.60;47.85
6930;DHT22;3504;52.616;13.238;2023-09-12T12:36:24;29.65;48.28
6930;DHT22;3504;52.616;13.238;2023-09-12T12:41:29;29.73;48.61
6930;DHT22;3504;52.616;13.238;2023-09-12T12:46:30;29.83;48.81
6930;DHT22;3504;52.616;13.238;2023-09-12T12:51:30;29.79;47.88
6930;DHT22;3504;52.616;13.238;2023-09-12T12:56:31;29.63;48.17
6930;DHT22;3504;52.616;13.238;2023-09-12T13:01:36;29.58;47.99
6930;DHT22;3504;52.616;13.238;2023-09-12T13:06:37;29.63;47.50
6930;DHT22;3504;52.616;13.238;2023-09-12T13:11:38;29.63;47.66
6930;DHT22;3504;52.616;13.238;2023-09-12T13:16:39;29.55;47.42
6930;DHT22;3504;52.616;13.238;2023-09-12T13:21:40;29.55;48.51
6930;DHT22;3504;52.616;13.238;2023-09-12T13:26:42;29.62;47.61
6930;DHT22;3504;52.616;13.238;2023-09-12T13:31:43;29.45;48.86
6930;DHT22;3504;52.616;13.238;2023-09-12T13:36:43;29.32;48.61
6930;DHT22;3504;52.616;13.238;2023-09-12T13:41:44;29.39;48.54
6930;DHT22;3504;52.616;13.238;2023-09-12T13:46:45;29.37;48.38
6930;DHT22;3504;52.616;13.238;2023-09-12T13:51:47;29.38;47.91
6930;DHT22;3504;52.616;13.238;2023-09-12T13:56:47;29.45;48.24
6930;DHT22;3504;52.616;13.238;2023-09-12T14:01:48;29.38;48.31
6930;DHT22;3504;52.616;13.238;2023-09-12T14:06:48;29.21;49.56
6930;DHT22;3504;52.616;13.238;2023-09-12T14:11:49;28.29;53.05
6930;DHT22;3504;52.616;13.238;2023-09-12T14:16:49;27.93;54.88
6930;DHT22;3504;52.616;13.238;2023-09-12T14:21:50;27.77;55.93
6930;DHT22;3504;52.616;13.238;2023-09-12T14:26:50;27.40;55.39
6930;DHT22;3504;52.616;13.238;2023-09-12T14:31:51;27.17;57.04
6930;DHT22;3504;52.616;13.238;2023-09-12T14:36:57;26.80;57.66
6930;DHT22;3504;52.616;13.238;2023-09-12T14:41:58;26.90;57.14
6930;DHT22;3504;52.616;13.238;2023-09-12T14:46:59;27.06;56.51
6930;DHT22;3504;52.616;13.238;2023-09-12T14:52:00;27.06;55.91
6930;DHT22;3504;52.616;13.238;2023-09-12T14:57:00;27.00;54.93
6930;DHT22;3504;52.616;13.238;2023-09-12T15:02:01;26.89;55.82
6930;DHT22;3504;52.616;13.238;2023-09-12T15:07:01;26.70;56.01
6930;DHT22;3504;52.616;13.238;2023-09-12T15:12:01;26.70;56.34
6930;DHT22;3504;52.616;13.238;2023-09-12T15:17:03;26.55;56.66
6930;DHT22;3504;52.616;13.238;2023-09-12T15:22:03;26.46;57.25
6930;DHT22;3504;52.616;13.238;2023-09-12T15:27:04;26.35;57.77
6930;DHT22;3504;52.616;13.238;2023-09-12T15:32:05;26.28;56.98
6930;DHT22;3504;52.616;13.238;2023-09-12T15:37:11;26.24;57.15
6930;DHT22;3504;52.616;13.238;2023-09-12T15:42:12;26.21;56.60
6930;DHT22;3504;52.616;13.238;2023-09-12T15:47:13;26.25;55.47
6930;DHT22;3504;52.616;13.238;2023-09-12T15:52:13;26.36;55.67
6930;DHT22;3504;52.616;13.238;2023-09-12T15:57:14;26.34;55.06
6930;DHT22;3504;52.616;13.238;2023-09-12T16:02:16;26.35;55.51
6930;DHT22;3504;52.616;13.238;2023-09-12T16:07:16;26.25;54.52
6930;DHT22;3504;52.616;13.238;2023-09-12T16:12:17;26.11;55.76
6930;DHT22;3504;52.616;13.238;2023-09-12T16:17:17;25.91;55.41
6930;DHT22;3504;52.616;13.238;2023-09-12T16:22:18;25.81;55.63
6930;DHT22;3504;52.616;13.238;2023-09-12T16:27:18;25.66;56.12
6930;DHT22;3504;52.616;13.238;2023-09-12T16:32:23;25.57;56.80
6930;DHT22;3504;52.616;13.238;2023-09-12T16:37:24;25.47;57.28
6930;DHT22;3504;52.616;13.238;2023-09-12T16:42:24;25.36;57.09
6930;DHT22;3504;52.616;13.238;2023-09-12T16:47:27;25.26;57.19
6930;DHT22;3504;52.616;13.238;2023-09-12T16:52:30;25.12;57.63
6930;DHT22;3504;52.616;13.238;2023-09-12T16:57:30;24.98;57.92
6930;DHT22;3504;52.616;13.238;2023-09-12T17:02:31;24.91;58.32
6930;DHT22;3504;52.616;13.238;2023-09-12T17:07:35;24.79;58.94
6930;DHT22;3504;52.616;13.238;2023-09-12T17:12:36;24.69;59.04
6930;DHT22;3504;52.616;13.238;2023-09-12T17:17:36;24.61;59.38
6930;DHT22;3504;52.616;13.238;2023-09-12T17:22:37;24.48;60.18
6930;DHT22;3504;52.616;13.238;2023-09-12T17:27:37;24.37;60.04
6930;DHT22;3504;52.616;13.238;2023-09-12T17:32:38;24.28;60.41
6930;DHT22;3504;52.616;13.238;2023-09-12T17:37:38;24.16;60.88
6930;DHT22;3504;52.616;13.238;2023-09-12T17:42:40;24.06;60.98
6930;DHT22;3504;52.616;13.238;2023-09-12T17:47:40;23.90;62.06
6930;DHT22;3504;52.616;13.238;2023-09-12T17:52:41;23.80;61.97
6930;DHT22;3504;52.616;13.238;2023-09-12T17:57:41;23.65;62.59
6930;DHT22;3504;52.616;13.238;2023-09-12T18:02:42;23.56;62.74
6930;DHT22;3504;52.616;13.238;2023-09-12T18:07:42;23.41;63.41
6930;DHT22;3504;52.616;13.238;2023-09-12T18:12:43;23.27;63.92
6930;DHT22;3504;52.616;13.238;2023-09-12T18:17:43;23.15;64.48
6930;DHT22;3504;52.616;13.238;2023-09-12T18:22:44;23.05;65.04
6930;DHT22;3504;52.616;13.238;2023-09-12T18:27:45;22.97;64.96
6930;DHT22;3504;52.616;13.238;2023-09-12T18:32:45;22.88;64.54
6930;DHT22;3504;52.616;13.238;2023-09-12T18:37:46;22.78;65.47
6930;DHT22;3504;52.616;13.238;2023-09-12T18:42:46;22.68;65.46
6930;DHT22;3504;52.616;13.238;2023-09-12T18:47:47;22.59;66.56
6930;DHT22;3504;52.616;13.238;2023-09-12T18:52:47;22.46;67.02
6930;DHT22;3504;52.616;13.238;2023-09-12T18:57:51;22.32;67.31
6930;DHT22;3504;52.616;13.238;2023-09-12T19:02:51;22.20;67.70
6930;DHT22;3504;52.616;13.238;2023-09-12T19:07:53;22.13;67.86
6930;DHT22;3504;52.616;13.238;2023-09-12T19:12:54;22.06;67.87
6930;DHT22;3504;52.616;13.238;2023-09-12T19:17:55;21.99;67.96
6930;DHT22;3504;52.616;13.238;2023-09-12T19:22:55;21.92;68.57
6930;DHT22;3504;52.616;13.238;2023-09-12T19:27:56;21.82;68.93
6930;DHT22;3504;52.616;13.238;2023-09-12T19:32:57;21.75;69.05
6930;DHT22;3504;52.616;13.238;2023-09-12T19:37:59;21.69;69.05
6930;DHT22;3504;52.616;13.238;2023-09-12T19:43:02;21.64;69.10
6930;DHT22;3504;52.616;13.238;2023-09-12T19:48:05;21.57;70.06
6930;DHT22;3504;52.616;13.238;2023-09-12T19:53:05;21.53;70.03
6930;DHT22;3504;52.616;13.238;2023-09-12T19:58:06;21.47;70.09
6930;DHT22;3504;52.616;13.238;2023-09-12T20:03:06;21.41;70.12
6930;DHT22;3504;52.616;13.238;2023-09-12T20:08:10;21.38;69.91
6930;DHT22;3504;52.616;13.238;2023-09-12T20:13:14;21.34;70.50
6930;DHT22;3504;52.616;13.238;2023-09-12T20:18:14;21.28;70.72
6930;DHT22;3504;52.616;13.238;2023-09-12T20:23:14;21.28;70.62
6930;DHT22;3504;52.616;13.238;2023-09-12T20:28:15;21.24;71.42
6930;DHT22;3504;52.616;13.238;2023-09-12T20:33:16;21.21;71.37
6930;DHT22;3504;52.616;13.238;2023-09-12T20:38:16;21.17;71.23
6930;DHT22;3504;52.616;13.238;2023-09-12T20:43:17;21.17;71.93
6930;DHT22;3504;52.616;13.238;2023-09-12T20:48:18;21.13;72.48
6930;DHT22;3504;52.616;13.238;2023-09-12T20:53:20;21.13;71.61
6930;DHT22;3504;52.616;13.238;2023-09-12T20:58:20;21.08;72.79
6930;DHT22;3504;52.616;13.238;2023-09-12T21:03:21;21.00;73.58
6930;DHT22;3504;52.616;13.238;2023-09-12T21:08:21;20.99;73.42
6930;DHT22;3504;52.616;13.238;2023-09-12T21:13:23;21.00;73.10
6930;DHT22;3504;52.616;13.238;2023-09-12T21:18:24;20.97;74.82
6930;DHT22;3504;52.616;13.238;2023-09-12T21:23:24;20.86;74.48
6930;DHT22;3504;52.616;13.238;2023-09-12T21:28:25;20.84;74.68
6930;DHT22;3504;52.616;13.238;2023-09-12T21:33:26;20.79;74.67
6930;DHT22;3504;52.616;13.238;2023-09-12T21:38:26;20.71;75.67
6930;DHT22;3504;52.616;13.238;2023-09-12T21:43:27;20.62;75.41
6930;DHT22;3504;52.616;13.238;2023-09-12T21:48:28;20.56;76.07
6930;DHT22;3504;52.616;13.238;2023-09-12T21:53:28;20.49;75.37
6930;DHT22;3504;52.616;13.238;2023-09-12T21:58:29;20.45;75.86
6930;DHT22;3504;52.616;13.238;2023-09-12T22:03:30;20.35;76.30
6930;DHT22;3504;52.616;13.238;2023-09-12T22:08:30;20.31;75.71
6930;DHT22;3504;52.616;13.238;2023-09-12T22:13:32;20.26;76.36
6930;DHT22;3504;52.616;13.238;2023-09-12T22:18:32;20.17;77.01
6930;DHT22;3504;52.616;13.238;2023-09-12T22:23:33;20.10;76.84
6930;DHT22;3504;52.616;13.238;2023-09-12T22:28:33;20.05;76.72
6930;DHT22;3504;52.616;13.238;2023-09-12T22:33:34;20.01;76.26
6930;DHT22;3504;52.616;13.238;2023-09-12T22:38:35;19.96;77.14
6930;DHT22;3504;52.616;13.238;2023-09-12T22:43:36;19.87;76.54
6930;DHT22;3504;52.616;13.238;2023-09-12T22:48:37;19.80;77.40
6930;DHT22;3504;52.616;13.238;2023-09-12T22:53:37;19.73;77.58
6930;DHT22;3504;52.616;13.238;2023-09-12T22:58:38;19.63;77.78
6930;DHT22;3504;52.616;13.238;2023-09-12T23:03:38;19.56;77.06
6930;DHT22;3504;52.616;13.238;2023-09-12T23:08:39;19.53;77.52
6930;DHT22;3504;52.616;13.238;2023-09-12T23:13:40;19.49;77.48
6930;DHT22;3504;52.616;13.238;2023-09-12T23:18:40;19.46;77.97
6930;DHT22;3504;52.616;13.238;2023-09-12T23:23:41;19.40;78.45
6930;DHT22;3504;52.616;13.238;2023-09-12T23:28:41;19.29;78.71
6930;DHT22;3504;52.616;13.238;2023-09-12T23:33:42;19.26;77.66
6930;DHT22;3504;52.616;13.238;2023-09-12T23:38:43;19.23;77.77
6930;DHT22;3504;52.616;13.238;2023-09-12T23:43:43;19.23;78.15
6930;DHT22;3504;52.616;13.238;2023-09-12T23:48:44;19.20;78.19
6930;DHT22;3504;52.616;13.238;2023-09-12T23:53:44;19.18;78.86
6930;DHT22;3504;52.616;13.238;2023-09-12T23:58:45;19.16;79.18
